sensor_id;sensor_type;location;lat;lon;timestamp;pressure;altitude;pressure_sealevel;temperature;humidity
21753;BME280;11038;50.940;20.564;2022-08-11T00:00:58;98581.66;;;14.82;81.27
21753;BME280;11038;50.940;20.564;2022-08-11T00:02:34;98588.03;;;14.81;81.30
21753;BME280;11038;50.940;20.564;2022-08-11T00:04:08;98588.03;;;14.81;81.29
21753;BME280;11038;50.940;20.564;2022-08-11T00:05:53;98588.03;;;14.81;81.18
21753;BME280;11038;50.940;20.564;2022-08-11T00:07:27;98587.72;;;14.76;81.50
21753;BME280;11038;50.940;20.564;2022-08-11T00:09:04;98585.03;;;14.76;81.52
21753;BME280;11038;50.940;20.564;2022-08-11T00:10:39;98588.78;;;14.75;81.55
21753;BME280;11038;50.940;20.564;2022-08-11T00:12:15;98586.88;;;14.75;81.63
21753;BME280;11038;50.940;20.564;2022-08-11T00:13:49;98588.78;;;14.75;81.87
21753;BME280;11038;50.940;20.564;2022-08-11T00:15:42;98585.22;;;14.74;81.85
21753;BME280;11038;50.940;20.564;2022-08-11T00:17:15;98580.69;;;14.75;81.90
21753;BME280;11038;50.940;20.564;2022-08-11T00:18:55;98584.19;;;14.75;81.79
21753;BME280;11038;50.940;20.564;2022-08-11T00:20:34;98585.88;;;14.76;81.71
21753;BME280;11038;50.940;20.564;2022-08-11T00:22:20;98580.69;;;14.75;81.82
21753;BME280;11038;50.940;20.564;2022-08-11T00:24:00;98583.75;;;14.71;82.09
21753;BME280;11038;50.940;20.564;2022-08-11T00:25:46;98582.06;;;14.70;82.14
21753;BME280;11038;50.940;20.564;2022-08-11T00:27:19;98582.91;;;14.71;82.22
21753;BME280;11038;50.940;20.564;2022-08-11T00:28:52;98583.25;;;14.68;82.25
21753;BME280;11038;50.940;20.564;2022-08-11T00:30:37;98579.06;;;14.65;82.32
21753;BME280;11038;50.940;20.564;2022-08-11T00:32:13;98583.59;;;14.65;82.42
21753;BME280;11038;50.940;20.564;2022-08-11T00:33:50;98579.91;;;14.66;82.48
21753;BME280;11038;50.940;20.564;2022-08-11T00:35:28;98585.63;;;14.63;82.55
21753;BME280;11038;50.940;20.564;2022-08-11T00:37:23;98585.78;;;14.61;82.67
21753;BME280;11038;50.940;20.564;2022-08-11T00:39:04;98585.47;;;14.56;83.08
21753;BME280;11038;50.940;20.564;2022-08-11T00:45:02;98580.75;;;14.66;82.99
21753;BME280;11038;50.940;20.564;2022-08-11T00:49:08;98574.69;;;14.64;82.51
21753;BME280;11038;50.940;20.564;2022-08-11T00:51:23;98573.69;;;14.65;81.96
21753;BME280;11038;50.940;20.564;2022-08-11T00:53:36;98575.88;;;14.61;81.99
21753;BME280;11038;50.940;20.564;2022-08-11T00:55:30;98580.25;;;14.63;81.56
21753;BME280;11038;50.940;20.564;2022-08-11T01:02:08;98577.81;;;14.44;82.74
21753;BME280;11038;50.940;20.564;2022-08-11T01:06:20;98575.44;;;14.49;82.67
21753;BME280;11038;50.940;20.564;2022-08-11T01:10:30;98577.09;;;14.50;82.56
21753;BME280;11038;50.940;20.564;2022-08-11T01:15:57;98581.16;;;14.46;82.92
21753;BME280;11038;50.940;20.564;2022-08-11T01:31:14;98588.59;;;14.36;84.13
21753;BME280;11038;50.940;20.564;2022-08-11T01:45:56;98583.31;;;14.51;82.85
21753;BME280;11038;50.940;20.564;2022-08-11T01:47:48;98580.47;;;14.53;82.58
21753;BME280;11038;50.940;20.564;2022-08-11T01:50:04;98584.28;;;14.58;82.22
21753;BME280;11038;50.940;20.564;2022-08-11T01:52:28;98585.44;;;14.64;81.77
21753;BME280;11038;50.940;20.564;2022-08-11T01:59:49;98575.63;;;14.80;80.63
21753;BME280;11038;50.940;20.564;2022-08-11T02:03:54;98575.41;;;14.90;79.83
21753;BME280;11038;50.940;20.564;2022-08-11T02:05:57;98579.94;;;14.89;79.59
21753;BME280;11038;50.940;20.564;2022-08-11T02:08:00;98577.44;;;14.88;79.47
21753;BME280;11038;50.940;20.564;2022-08-11T02:11:30;98579.94;;;14.89;79.63
21753;BME280;11038;50.940;20.564;2022-08-11T02:13:23;98581.63;;;14.90;79.81
21753;BME280;11038;50.940;20.564;2022-08-11T02:15:29;98587.03;;;14.90;79.80
21753;BME280;11038;50.940;20.564;2022-08-11T02:17:40;98586.53;;;14.87;79.86
21753;BME280;11038;50.940;20.564;2022-08-11T02:21:51;98585.69;;;14.78;80.56
21753;BME280;11038;50.940;20.564;2022-08-11T02:24:03;98585.88;;;14.76;80.69
21753;BME280;11038;50.940;20.564;2022-08-11T02:26:19;98582.66;;;14.81;80.66
21753;BME280;11038;50.940;20.564;2022-08-11T02:28:26;98576.44;;;14.80;80.59
21753;BME280;11038;50.940;20.564;2022-08-11T02:30:09;98585.88;;;14.76;80.82
21753;BME280;11038;50.940;20.564;2022-08-11T02:34:31;98582.75;;;14.64;81.45
21753;BME280;11038;50.940;20.564;2022-08-11T02:36:24;98582.94;;;14.63;81.48
21753;BME280;11038;50.940;20.564;2022-08-11T02:40:23;98579.97;;;14.49;82.14
21753;BME280;11038;50.940;20.564;2022-08-11T02:42:29;98585.88;;;14.44;82.54
21753;BME280;11038;50.940;20.564;2022-08-11T02:44:36;98577.50;;;14.39;82.79
21753;BME280;11038;50.940;20.564;2022-08-11T02:46:30;98577.66;;;14.37;83.05
21753;BME280;11038;50.940;20.564;2022-08-11T02:48:43;98581.88;;;14.32;83.31
21753;BME280;11038;50.940;20.564;2022-08-11T02:53:24;98575.03;;;14.21;84.45
21753;BME280;11038;50.940;20.564;2022-08-11T02:57:53;98576.25;;;14.10;84.87
21753;BME280;11038;50.940;20.564;2022-08-11T02:59:56;98571.91;;;14.09;85.04
21753;BME280;11038;50.940;20.564;2022-08-11T03:01:43;98576.78;;;14.05;85.29
21753;BME280;11038;50.940;20.564;2022-08-11T03:03:29;98590.22;;;14.05;85.34
21753;BME280;11038;50.940;20.564;2022-08-11T03:07:09;98581.97;;;14.06;85.37
21753;BME280;11038;50.940;20.564;2022-08-11T03:09:19;98574.44;;;14.02;85.52
21753;BME280;11038;50.940;20.564;2022-08-11T03:11:15;98567.53;;;14.08;85.42
21753;BME280;11038;50.940;20.564;2022-08-11T03:13:32;98574.59;;;14.09;85.36
21753;BME280;11038;50.940;20.564;2022-08-11T03:15:40;98578.59;;;14.13;85.41
21753;BME280;11038;50.940;20.564;2022-08-11T03:20:47;98576.22;;;14.18;85.05
21753;BME280;11038;50.940;20.564;2022-08-11T03:22:42;98571.50;;;14.20;85.04
21753;BME280;11038;50.940;20.564;2022-08-11T03:24:26;98576.19;;;14.26;84.77
21753;BME280;11038;50.940;20.564;2022-08-11T03:30:22;98584.09;;;14.28;84.46
21753;BME280;11038;50.940;20.564;2022-08-11T03:32:06;98581.41;;;14.28;84.49
21753;BME280;11038;50.940;20.564;2022-08-11T03:33:51;98585.63;;;14.22;84.56
21753;BME280;11038;50.940;20.564;2022-08-11T03:36:19;98580.41;;;14.21;84.55
21753;BME280;11038;50.940;20.564;2022-08-11T03:37:59;98589.09;;;14.31;84.63
21753;BME280;11038;50.940;20.564;2022-08-11T03:43:53;98584.00;;;14.85;83.26
21753;BME280;11038;50.940;20.564;2022-08-11T03:45:48;98581.88;;;15.04;82.41
21753;BME280;11038;50.940;20.564;2022-08-11T03:48:13;98582.72;;;15.28;80.90
21753;BME280;11038;50.940;20.564;2022-08-11T03:54:15;98579.69;;;16.00;77.72
21753;BME280;11038;50.940;20.564;2022-08-11T04:00:34;98586.47;;;16.94;73.15
21753;BME280;11038;50.940;20.564;2022-08-11T04:05:12;98581.28;;;17.58;70.70
21753;BME280;11038;50.940;20.564;2022-08-11T04:11:38;98574.94;;;18.44;66.06
21753;BME280;11038;50.940;20.564;2022-08-11T04:17:07;98584.94;;;19.13;61.81
21753;BME280;11038;50.940;20.564;2022-08-11T04:19:04;98584.56;;;19.44;60.82
21753;BME280;11038;50.940;20.564;2022-08-11T04:30:10;98581.00;;;21.10;55.42
21753;BME280;11038;50.940;20.564;2022-08-11T04:34:23;98584.59;;;21.81;53.30
21753;BME280;11038;50.940;20.564;2022-08-11T04:42:12;98588.84;;;22.59;49.96
21753;BME280;11038;50.940;20.564;2022-08-11T04:51:39;98586.31;;;22.95;48.80
21753;BME280;11038;50.940;20.564;2022-08-11T04:58:11;98594.03;;;23.10;48.14
21753;BME280;11038;50.940;20.564;2022-08-11T05:00:11;98592.22;;;23.04;47.29
21753;BME280;11038;50.940;20.564;2022-08-11T05:13:06;98600.25;;;22.87;47.72
21753;BME280;11038;50.940;20.564;2022-08-11T05:15:00;98602.06;;;23.05;48.06
21753;BME280;11038;50.940;20.564;2022-08-11T05:16:58;98610.38;;;23.10;47.96
21753;BME280;11038;50.940;20.564;2022-08-11T05:18:55;98604.41;;;22.89;48.51
21753;BME280;11038;50.940;20.564;2022-08-11T05:20:53;98602.84;;;22.94;48.13
21753;BME280;11038;50.940;20.564;2022-08-11T05:22:51;98619.69;;;22.34;49.29
21753;BME280;11038;50.940;20.564;2022-08-11T05:24:48;98615.84;;;22.42;50.03
21753;BME280;11038;50.940;20.564;2022-08-11T05:26:49;98616.50;;;22.56;49.25
21753;BME280;11038;50.940;20.564;2022-08-11T05:29:01;98619.84;;;22.77;49.49
21753;BME280;11038;50.940;20.564;2022-08-11T05:31:04;98623.09;;;22.67;49.72
21753;BME280;11038;50.940;20.564;2022-08-11T05:33:09;98623.84;;;22.74;49.70
21753;BME280;11038;50.940;20.564;2022-08-11T05:35:04;98625.34;;;22.89;50.52
21753;BME280;11038;50.940;20.564;2022-08-11T05:36:59;98614.94;;;22.29;50.32
21753;BME280;11038;50.940;20.564;2022-08-11T05:39:00;98621.16;;;21.66;51.25
21753;BME280;11038;50.940;20.564;2022-08-11T05:41:11;98623.25;;;21.90;52.23
21753;BME280;11038;50.940;20.564;2022-08-11T05:43:12;98618.50;;;21.27;53.69
21753;BME280;11038;50.940;20.564;2022-08-11T05:45:15;98619.97;;;21.55;53.40
21753;BME280;11038;50.940;20.564;2022-08-11T05:47:27;98619.88;;;21.95;53.43
21753;BME280;11038;50.940;20.564;2022-08-11T05:49:18;98622.59;;;21.95;53.22
21753;BME280;11038;50.940;20.564;2022-08-11T05:51:10;98619.44;;;21.72;53.72
21753;BME280;11038;50.940;20.564;2022-08-11T05:53:08;98621.53;;;21.96;52.38
21753;BME280;11038;50.940;20.564;2022-08-11T05:55:17;98621.66;;;22.08;52.75
21753;BME280;11038;50.940;20.564;2022-08-11T05:57:32;98619.06;;;21.87;52.99
21753;BME280;11038;50.940;20.564;2022-08-11T05:59:25;98609.97;;;22.00;53.63
21753;BME280;11038;50.940;20.564;2022-08-11T06:01:02;98616.44;;;22.25;52.97
21753;BME280;11038;50.940;20.564;2022-08-11T06:02:47;98605.69;;;22.11;53.29
21753;BME280;11038;50.940;20.564;2022-08-11T06:04:24;98615.59;;;22.62;52.17
21753;BME280;11038;50.940;20.564;2022-08-11T06:05:58;98615.75;;;22.67;52.53
21753;BME280;11038;50.940;20.564;2022-08-11T06:07:31;98614.00;;;22.54;51.76
21753;BME280;11038;50.940;20.564;2022-08-11T06:11:07;98605.97;;;22.97;50.02
21753;BME280;11038;50.940;20.564;2022-08-11T06:12:42;98619.53;;;22.48;51.56
21753;BME280;11038;50.940;20.564;2022-08-11T06:14:15;98617.75;;;22.79;50.68
21753;BME280;11038;50.940;20.564;2022-08-11T06:15:50;98610.66;;;23.21;50.99
21753;BME280;11038;50.940;20.564;2022-08-11T06:17:30;98610.38;;;23.53;50.28
21753;BME280;11038;50.940;20.564;2022-08-11T06:19:10;98610.19;;;23.24;50.03
21753;BME280;11038;50.940;20.564;2022-08-11T06:20:56;98607.44;;;23.67;49.50
21753;BME280;11038;50.940;20.564;2022-08-11T06:22:31;98611.59;;;23.70;48.43
21753;BME280;11038;50.940;20.564;2022-08-11T06:24:12;98610.78;;;23.69;47.97
21753;BME280;11038;50.940;20.564;2022-08-11T06:25:46;98611.97;;;23.97;47.19
21753;BME280;11038;50.940;20.564;2022-08-11T06:27:22;98605.78;;;24.14;46.59
21753;BME280;11038;50.940;20.564;2022-08-11T06:28:59;98614.69;;;24.33;46.83
21753;BME280;11038;50.940;20.564;2022-08-11T06:30:39;98613.63;;;24.35;46.98
21753;BME280;11038;50.940;20.564;2022-08-11T06:32:14;98619.66;;;24.00;47.22
21753;BME280;11038;50.940;20.564;2022-08-11T06:35:50;98619.19;;;24.04;48.79
21753;BME280;11038;50.940;20.564;2022-08-11T06:38:12;98615.78;;;23.96;48.23
21753;BME280;11038;50.940;20.564;2022-08-11T06:40:22;98613.72;;;23.92;48.02
21753;BME280;11038;50.940;20.564;2022-08-11T06:42:06;98611.13;;;23.61;48.76
21753;BME280;11038;50.940;20.564;2022-08-11T06:43:52;98606.63;;;24.03;48.01
21753;BME280;11038;50.940;20.564;2022-08-11T06:47:15;98609.13;;;23.37;49.82
21753;BME280;11038;50.940;20.564;2022-08-11T06:48:49;98606.47;;;23.61;49.51
21753;BME280;11038;50.940;20.564;2022-08-11T06:50:25;98607.56;;;23.84;49.61
21753;BME280;11038;50.940;20.564;2022-08-11T06:52:18;98602.44;;;23.52;50.09
21753;BME280;11038;50.940;20.564;2022-08-11T06:54:12;98603.63;;;22.63;51.38
21753;BME280;11038;50.940;20.564;2022-08-11T06:55:48;98615.78;;;22.49;52.65
21753;BME280;11038;50.940;20.564;2022-08-11T06:57:44;98617.56;;;22.93;50.66
21753;BME280;11038;50.940;20.564;2022-08-11T06:59:37;98606.84;;;22.79;50.29
21753;BME280;11038;50.940;20.564;2022-08-11T07:04:03;98607.56;;;23.17;50.43
21753;BME280;11038;50.940;20.564;2022-08-11T07:05:41;98601.88;;;23.19;50.61
21753;BME280;11038;50.940;20.564;2022-08-11T07:12:44;98601.88;;;23.98;47.67
21753;BME280;11038;50.940;20.564;2022-08-11T07:14:52;98599.16;;;23.86;47.53
21753;BME280;11038;50.940;20.564;2022-08-11T07:16:46;98599.66;;;23.40;49.81
21753;BME280;11038;50.940;20.564;2022-08-11T07:18:24;98601.53;;;23.82;48.94
21753;BME280;11038;50.940;20.564;2022-08-11T07:20:17;98601.00;;;23.49;48.77
21753;BME280;11038;50.940;20.564;2022-08-11T07:22:11;98603.78;;;23.73;48.54
21753;BME280;11038;50.940;20.564;2022-08-11T07:24:13;98607.94;;;24.12;47.49
21753;BME280;11038;50.940;20.564;2022-08-11T07:26:26;98610.06;;;24.34;47.16
21753;BME280;11038;50.940;20.564;2022-08-11T07:28:23;98604.72;;;24.15;46.61
21753;BME280;11038;50.940;20.564;2022-08-11T07:30:17;98612.75;;;24.46;47.62
21753;BME280;11038;50.940;20.564;2022-08-11T07:31:51;98605.31;;;24.71;46.05
21753;BME280;11038;50.940;20.564;2022-08-11T07:33:45;98606.41;;;25.11;45.11
21753;BME280;11038;50.940;20.564;2022-08-11T07:35:51;98604.50;;;25.12;44.27
21753;BME280;11038;50.940;20.564;2022-08-11T07:37:30;98598.41;;;25.09;42.96
21753;BME280;11038;50.940;20.564;2022-08-11T07:39:14;98604.94;;;25.38;43.53
21753;BME280;11038;50.940;20.564;2022-08-11T07:40:49;98594.72;;;25.50;41.97
21753;BME280;11038;50.940;20.564;2022-08-11T07:42:30;98599.28;;;25.62;42.70
21753;BME280;11038;50.940;20.564;2022-08-11T07:44:08;98598.50;;;25.79;42.60
21753;BME280;11038;50.940;20.564;2022-08-11T07:45:43;98601.94;;;25.91;42.30
21753;BME280;11038;50.940;20.564;2022-08-11T07:47:37;98610.97;;;26.09;42.22
21753;BME280;11038;50.940;20.564;2022-08-11T07:49:36;98600.19;;;25.50;41.61
21753;BME280;11038;50.940;20.564;2022-08-11T07:51:28;98596.13;;;25.53;40.87
21753;BME280;11038;50.940;20.564;2022-08-11T07:53:20;98601.44;;;25.42;41.90
21753;BME280;11038;50.940;20.564;2022-08-11T07:54:58;98600.94;;;25.46;42.79
21753;BME280;11038;50.940;20.564;2022-08-11T07:56:38;98605.63;;;25.80;41.17
21753;BME280;11038;50.940;20.564;2022-08-11T07:58:36;98589.00;;;25.69;40.53
21753;BME280;11038;50.940;20.564;2022-08-11T08:00:47;98597.56;;;25.73;40.62
21753;BME280;11038;50.940;20.564;2022-08-11T08:02:42;98597.34;;;25.74;39.78
21753;BME280;11038;50.940;20.564;2022-08-11T08:04:34;98589.88;;;25.52;39.35
21753;BME280;11038;50.940;20.564;2022-08-11T08:06:28;98597.56;;;25.38;40.43
21753;BME280;11038;50.940;20.564;2022-08-11T08:08:20;98595.97;;;24.96;42.63
21753;BME280;11038;50.940;20.564;2022-08-11T08:10:12;98586.78;;;25.31;40.75
21753;BME280;11038;50.940;20.564;2022-08-11T08:12:07;98587.53;;;25.27;42.26
21753;BME280;11038;50.940;20.564;2022-08-11T08:13:58;98590.66;;;25.53;40.30
21753;BME280;11038;50.940;20.564;2022-08-11T08:15:52;98590.03;;;25.63;40.98
21753;BME280;11038;50.940;20.564;2022-08-11T08:17:44;98592.69;;;25.75;40.34
21753;BME280;11038;50.940;20.564;2022-08-11T08:19:49;98586.72;;;25.43;38.99
21753;BME280;11038;50.940;20.564;2022-08-11T08:21:22;98589.50;;;25.31;40.00
21753;BME280;11038;50.940;20.564;2022-08-11T08:22:58;98579.91;;;25.46;39.46
21753;BME280;11038;50.940;20.564;2022-08-11T08:24:32;98572.69;;;25.40;40.25
21753;BME280;11038;50.940;20.564;2022-08-11T08:26:08;98576.59;;;24.68;41.93
21753;BME280;11038;50.940;20.564;2022-08-11T08:28:10;98572.56;;;25.00;41.36
21753;BME280;11038;50.940;20.564;2022-08-11T08:29:46;98576.69;;;24.20;42.66
21753;BME280;11038;50.940;20.564;2022-08-11T08:31:37;98580.53;;;24.07;42.88
21753;BME280;11038;50.940;20.564;2022-08-11T08:33:19;98582.50;;;24.48;41.34
21753;BME280;11038;50.940;20.564;2022-08-11T08:34:53;98582.84;;;25.10;40.74
21753;BME280;11038;50.940;20.564;2022-08-11T08:36:26;98578.66;;;25.37;40.12
21753;BME280;11038;50.940;20.564;2022-08-11T08:37:59;98572.94;;;25.21;38.56
21753;BME280;11038;50.940;20.564;2022-08-11T08:39:33;98573.09;;;25.14;39.91
21753;BME280;11038;50.940;20.564;2022-08-11T08:41:07;98568.72;;;25.30;40.10
21753;BME280;11038;50.940;20.564;2022-08-11T08:43:05;98577.41;;;24.98;41.75
21753;BME280;11038;50.940;20.564;2022-08-11T08:44:46;98582.22;;;25.54;41.00
21753;BME280;11038;50.940;20.564;2022-08-11T08:46:45;98569.06;;;25.51;40.04
21753;BME280;11038;50.940;20.564;2022-08-11T08:48:24;98579.72;;;24.60;39.57
21753;BME280;11038;50.940;20.564;2022-08-11T08:50:07;98581.16;;;24.62;40.85
21753;BME280;11038;50.940;20.564;2022-08-11T08:51:53;98578.28;;;23.80;40.94
21753;BME280;11038;50.940;20.564;2022-08-11T08:53:53;98579.47;;;23.84;42.13
21753;BME280;11038;50.940;20.564;2022-08-11T08:55:30;98582.88;;;24.15;41.28
21753;BME280;11038;50.940;20.564;2022-08-11T08:57:07;98581.59;;;23.82;41.55
21753;BME280;11038;50.940;20.564;2022-08-11T08:58:45;98582.06;;;23.54;41.96
21753;BME280;11038;50.940;20.564;2022-08-11T09:00:23;98583.38;;;23.88;42.74
21753;BME280;11038;50.940;20.564;2022-08-11T09:02:03;98572.81;;;23.00;42.66
21753;BME280;11038;50.940;20.564;2022-08-11T09:03:37;98586.84;;;22.66;42.78
21753;BME280;11038;50.940;20.564;2022-08-11T09:05:30;98585.03;;;22.60;43.02
21753;BME280;11038;50.940;20.564;2022-08-11T09:07:10;98580.00;;;22.95;43.28
21753;BME280;11038;50.940;20.564;2022-08-11T09:08:47;98584.16;;;23.40;42.82
21753;BME280;11038;50.940;20.564;2022-08-11T09:10:24;98581.69;;;23.51;43.49
21753;BME280;11038;50.940;20.564;2022-08-11T09:11:58;98584.06;;;23.59;42.91
21753;BME280;11038;50.940;20.564;2022-08-11T09:13:33;98578.88;;;23.94;42.31
21753;BME280;11038;50.940;20.564;2022-08-11T09:15:08;98575.63;;;24.33;42.46
21753;BME280;11038;50.940;20.564;2022-08-11T09:16:44;98568.34;;;24.80;41.91
21753;BME280;11038;50.940;20.564;2022-08-11T09:18:19;98577.53;;;24.20;40.83
21753;BME280;11038;50.940;20.564;2022-08-11T09:19:57;98573.16;;;23.83;41.31
21753;BME280;11038;50.940;20.564;2022-08-11T09:21:33;98573.44;;;23.94;39.51
21753;BME280;11038;50.940;20.564;2022-08-11T09:23:20;98569.63;;;23.83;41.55
21753;BME280;11038;50.940;20.564;2022-08-11T09:25:33;98580.13;;;24.51;43.20
21753;BME280;11038;50.940;20.564;2022-08-11T09:27:31;98574.00;;;23.84;43.16
21753;BME280;11038;50.940;20.564;2022-08-11T09:29:07;98574.84;;;23.96;43.48
21753;BME280;11038;50.940;20.564;2022-08-11T09:30:45;98575.16;;;24.36;42.38
21753;BME280;11038;50.940;20.564;2022-08-11T09:32:20;98560.25;;;24.56;42.01
21753;BME280;11038;50.940;20.564;2022-08-11T09:33:54;98563.09;;;23.96;43.16
21753;BME280;11038;50.940;20.564;2022-08-11T09:35:33;98565.91;;;24.66;42.78
21753;BME280;11038;50.940;20.564;2022-08-11T09:37:08;98565.00;;;25.19;40.27
21753;BME280;11038;50.940;20.564;2022-08-11T09:39:19;98556.13;;;25.29;39.84
21753;BME280;11038;50.940;20.564;2022-08-11T09:41:13;98557.00;;;25.70;38.81
21753;BME280;11038;50.940;20.564;2022-08-11T09:42:46;98565.13;;;25.99;38.95
21753;BME280;11038;50.940;20.564;2022-08-11T09:44:38;98564.75;;;26.13;39.21
21753;BME280;11038;50.940;20.564;2022-08-11T09:46:26;98556.31;;;26.59;38.66
21753;BME280;11038;50.940;20.564;2022-08-11T09:48:00;98556.34;;;26.92;38.98
21753;BME280;11038;50.940;20.564;2022-08-11T09:49:37;98548.81;;;27.33;37.58
21753;BME280;11038;50.940;20.564;2022-08-11T09:51:11;98554.34;;;27.38;37.58
21753;BME280;11038;50.940;20.564;2022-08-11T09:52:45;98545.91;;;27.50;36.49
21753;BME280;11038;50.940;20.564;2022-08-11T09:54:42;98544.78;;;27.84;35.29
21753;BME280;11038;50.940;20.564;2022-08-11T09:56:23;98550.63;;;26.94;37.29
21753;BME280;11038;50.940;20.564;2022-08-11T09:58:15;98547.50;;;26.12;37.94
21753;BME280;11038;50.940;20.564;2022-08-11T10:00:12;98544.25;;;25.75;38.09
21753;BME280;11038;50.940;20.564;2022-08-11T10:01:56;98541.09;;;25.15;39.41
21753;BME280;11038;50.940;20.564;2022-08-11T10:03:31;98539.63;;;25.07;39.72
21753;BME280;11038;50.940;20.564;2022-08-11T10:05:18;98535.66;;;25.49;40.20
21753;BME280;11038;50.940;20.564;2022-08-11T10:07:15;98543.09;;;24.73;39.26
21753;BME280;11038;50.940;20.564;2022-08-11T10:08:53;98537.66;;;24.19;40.35
21753;BME280;11038;50.940;20.564;2022-08-11T10:10:28;98532.97;;;23.54;41.71
21753;BME280;11038;50.940;20.564;2022-08-11T10:12:05;98530.81;;;23.81;41.28
21753;BME280;11038;50.940;20.564;2022-08-11T10:13:44;98541.47;;;24.06;41.68
21753;BME280;11038;50.940;20.564;2022-08-11T10:16:01;98536.06;;;23.70;43.76
21753;BME280;11038;50.940;20.564;2022-08-11T10:17:53;98525.25;;;23.87;43.03
21753;BME280;11038;50.940;20.564;2022-08-11T10:19:47;98521.13;;;23.85;43.35
21753;BME280;11038;50.940;20.564;2022-08-11T10:21:44;98517.91;;;23.76;43.58
21753;BME280;11038;50.940;20.564;2022-08-11T10:23:38;98514.00;;;23.84;42.60
21753;BME280;11038;50.940;20.564;2022-08-11T10:25:36;98509.53;;;24.31;42.99
21753;BME280;11038;50.940;20.564;2022-08-11T10:27:28;98502.94;;;24.73;40.81
21753;BME280;11038;50.940;20.564;2022-08-11T10:29:29;98501.13;;;24.79;40.75
21753;BME280;11038;50.940;20.564;2022-08-11T10:31:23;98501.69;;;24.64;40.67
21753;BME280;11038;50.940;20.564;2022-08-11T10:33:31;98496.94;;;23.76;43.37
21753;BME280;11038;50.940;20.564;2022-08-11T10:35:32;98495.97;;;23.83;43.14
21753;BME280;11038;50.940;20.564;2022-08-11T10:37:06;98496.38;;;24.28;43.23
21753;BME280;11038;50.940;20.564;2022-08-11T10:38:46;98498.16;;;24.81;43.13
21753;BME280;11038;50.940;20.564;2022-08-11T10:40:24;98492.00;;;25.20;42.20
21753;BME280;11038;50.940;20.564;2022-08-11T10:42:00;98501.75;;;25.50;38.66
21753;BME280;11038;50.940;20.564;2022-08-11T10:44:15;98491.53;;;25.63;39.12
21753;BME280;11038;50.940;20.564;2022-08-11T10:45:48;98488.13;;;25.73;38.28
21753;BME280;11038;50.940;20.564;2022-08-11T10:47:39;98491.94;;;25.72;38.78
21753;BME280;11038;50.940;20.564;2022-08-11T10:49:22;98505.72;;;25.42;40.08
21753;BME280;11038;50.940;20.564;2022-08-11T10:50:56;98489.63;;;24.77;41.52
21753;BME280;11038;50.940;20.564;2022-08-11T10:53:09;98497.19;;;24.28;43.04
21753;BME280;11038;50.940;20.564;2022-08-11T10:55:01;98493.94;;;24.02;43.74
21753;BME280;11038;50.940;20.564;2022-08-11T10:56:54;98499.63;;;23.88;44.53
21753;BME280;11038;50.940;20.564;2022-08-11T10:58:47;98497.72;;;23.89;45.13
21753;BME280;11038;50.940;20.564;2022-08-11T11:00:21;98498.94;;;23.81;45.45
21753;BME280;11038;50.940;20.564;2022-08-11T11:01:58;98506.31;;;23.69;45.58
21753;BME280;11038;50.940;20.564;2022-08-11T11:03:35;98504.47;;;23.14;47.24
21753;BME280;11038;50.940;20.564;2022-08-11T11:05:21;98505.75;;;22.38;50.11
21753;BME280;11038;50.940;20.564;2022-08-11T11:07:09;98518.41;;;21.94;52.56
21753;BME280;11038;50.940;20.564;2022-08-11T11:08:48;98509.69;;;21.41;54.85
21753;BME280;11038;50.940;20.564;2022-08-11T11:10:34;98513.28;;;20.76;56.60
21753;BME280;11038;50.940;20.564;2022-08-11T11:12:20;98517.03;;;20.43;59.58
21753;BME280;11038;50.940;20.564;2022-08-11T11:14:19;98520.09;;;19.87;58.97
21753;BME280;11038;50.940;20.564;2022-08-11T11:16:23;98509.50;;;19.65;59.87
21753;BME280;11038;50.940;20.564;2022-08-11T11:18:23;98513.06;;;19.65;60.77
21753;BME280;11038;50.940;20.564;2022-08-11T11:19:59;98508.47;;;19.66;61.78
21753;BME280;11038;50.940;20.564;2022-08-11T11:21:37;98506.84;;;19.44;60.06
21753;BME280;11038;50.940;20.564;2022-08-11T11:23:36;98512.22;;;19.65;60.84
21753;BME280;11038;50.940;20.564;2022-08-11T11:25:35;98505.47;;;20.01;59.14
21753;BME280;11038;50.940;20.564;2022-08-11T11:27:33;98505.81;;;20.26;60.70
21753;BME280;11038;50.940;20.564;2022-08-11T11:37:48;98507.00;;;21.60;52.13
21753;BME280;11038;50.940;20.564;2022-08-11T11:39:36;98506.56;;;21.63;51.35
21753;BME280;11038;50.940;20.564;2022-08-11T11:41:09;98503.00;;;21.88;51.65
21753;BME280;11038;50.940;20.564;2022-08-11T11:42:59;98502.59;;;22.22;52.35
21753;BME280;11038;50.940;20.564;2022-08-11T11:44:36;98490.31;;;22.50;51.20
21753;BME280;11038;50.940;20.564;2022-08-11T11:46:10;98485.34;;;22.78;52.05
21753;BME280;11038;50.940;20.564;2022-08-11T11:47:43;98471.91;;;23.19;51.63
21753;BME280;11038;50.940;20.564;2022-08-11T11:49:24;98468.25;;;23.62;50.84
21753;BME280;11038;50.940;20.564;2022-08-11T11:50:59;98465.16;;;23.46;50.26
21753;BME280;11038;50.940;20.564;2022-08-11T11:52:33;98462.09;;;23.54;49.22
21753;BME280;11038;50.940;20.564;2022-08-11T11:54:06;98461.47;;;23.64;50.46
21753;BME280;11038;50.940;20.564;2022-08-11T11:55:43;98458.53;;;23.42;49.71
21753;BME280;11038;50.940;20.564;2022-08-11T11:57:19;98473.31;;;22.98;51.85
21753;BME280;11038;50.940;20.564;2022-08-11T11:59:13;98469.38;;;22.82;52.36
21753;BME280;11038;50.940;20.564;2022-08-11T12:01:05;98478.13;;;22.53;51.83
21753;BME280;11038;50.940;20.564;2022-08-11T12:02:48;98486.22;;;22.10;50.14
21753;BME280;11038;50.940;20.564;2022-08-11T12:04:23;98484.81;;;21.63;50.86
21753;BME280;11038;50.940;20.564;2022-08-11T12:05:58;98480.03;;;21.39;50.70
21753;BME280;11038;50.940;20.564;2022-08-11T12:07:32;98490.63;;;21.22;52.30
21753;BME280;11038;50.940;20.564;2022-08-11T12:09:41;98484.91;;;21.30;53.17
21753;BME280;11038;50.940;20.564;2022-08-11T12:11:15;98481.34;;;21.04;54.07